Time;durP1;ratioP1;P1;durP2;ratioP2;P2;SDS_P1;SDS_P2;PMS_P1;PMS_P2;Temp;Humidity;BMP_temperature;BMP_pressure;BME280_temperature;BME280_humidity;BME280_pressure;Samples;Min_cycle;Max_cycle;Signal;HPM_P1;HPM_P2
2022/04/25 00:00:05;;;;;;;25.87;18.90;;;9.60;99.90;;;;;;4936392;29;20171;-73
2022/04/25 00:02:30;;;;;;;21.63;18.07;;;9.60;99.90;;;;;;4935486;29;20674;-72
2022/04/25 00:04:56;;;;;;;24.87;18.60;;;9.60;99.90;;;;;;4936114;29;20479;-72
2022/04/25 00:07:22;;;;;;;25.83;18.83;;;9.70;99.90;;;;;;4935778;29;20546;-72
2022/04/25 00:09:47;;;;;;;26.10;19.57;;;9.60;99.90;;;;;;4935880;29;20607;-72
2022/04/25 00:12:13;;;;;;;25.40;19.10;;;9.60;99.90;;;;;;4935522;29;20703;-72
2022/04/25 00:14:38;;;;;;;25.37;19.57;;;9.70;99.90;;;;;;4935777;29;20675;-73
2022/04/25 00:17:04;;;;;;;27.10;20.33;;;9.60;99.90;;;;;;4935940;29;20183;-72
2022/04/25 00:19:30;;;;;;;27.47;19.53;;;9.70;99.90;;;;;;4935520;29;20256;-73
2022/04/25 00:21:55;;;;;;;33.30;22.10;;;9.70;99.90;;;;;;4935195;29;20291;-72
2022/04/25 00:24:21;;;;;;;27.27;21.87;;;9.70;99.90;;;;;;4935457;29;20190;-71
2022/04/25 00:26:47;;;;;;;29.63;21.60;;;9.70;99.90;;;;;;4935668;29;20280;-72
2022/04/25 00:29:12;;;;;;;28.80;21.60;;;9.70;99.90;;;;;;4935750;29;20314;-73
2022/04/25 00:31:39;;;;;;;28.87;23.00;;;9.60;99.90;;;;;;4934042;29;20219;-72
2022/04/25 00:34:05;;;;;;;31.37;23.30;;;9.60;99.90;;;;;;4934208;29;20284;-74
2022/04/25 00:36:30;;;;;;;34.07;24.17;;;9.60;99.90;;;;;;4935536;29;20456;-72
2022/04/25 00:38:56;;;;;;;29.20;22.50;;;9.60;99.90;;;;;;4935518;29;20179;-72
2022/04/25 00:41:21;;;;;;;29.63;23.87;;;9.60;99.90;;;;;;4935102;29;20204;-71
2022/04/25 00:43:47;;;;;;;31.90;24.13;;;9.50;99.90;;;;;;4935173;29;20185;-72
2022/04/25 00:46:24;;;;;;;30.20;23.77;;;9.50;99.90;;;;;;4933962;29;20181;-72
2022/04/25 00:48:49;;;;;;;29.10;23.20;;;9.50;99.90;;;;;;4935188;29;20494;-72
2022/04/25 00:51:16;;;;;;;31.07;24.03;;;9.40;99.90;;;;;;4934721;29;20566;-71
2022/04/25 00:53:44;;;;;;;30.87;25.53;;;9.40;99.90;;;;;;4935078;29;20182;-72
2022/04/25 00:56:11;;;;;;;33.93;25.00;;;9.30;99.90;;;;;;4935214;29;20782;-72
2022/04/25 00:58:37;;;;;;;29.80;25.20;;;9.20;99.90;;;;;;4934915;29;20936;-72
2022/04/25 02:31:39;;;;;;;42.57;29.57;;;8.50;99.90;;;;;;5609930;23;20577;-72
2022/04/25 02:34:05;;;;;;;38.07;26.83;;;8.60;99.90;;;;;;4981444;28;20910;-71
2022/04/25 02:36:31;;;;;;;39.00;28.50;;;8.60;99.90;;;;;;4991359;28;20645;-73
2022/04/25 02:38:56;;;;;;;38.70;29.50;;;8.60;99.90;;;;;;4976696;28;20244;-71
2022/04/25 02:41:22;;;;;;;39.17;28.37;;;8.60;99.90;;;;;;4954622;28;20206;-73
2022/04/25 02:43:47;;;;;;;39.37;28.63;;;8.60;99.90;;;;;;4957707;28;20182;-71
2022/04/25 02:46:15;;;;;;;45.40;30.40;;;8.70;99.90;;;;;;4975734;28;20188;-71
2022/04/25 02:48:42;;;;;;;41.40;29.83;;;8.70;99.90;;;;;;4975707;28;20237;-74
2022/04/25 02:51:10;;;;;;;40.23;29.70;;;8.70;99.90;;;;;;4975166;28;20466;-71
2022/04/25 02:53:36;;;;;;;37.50;27.07;;;8.70;99.90;;;;;;4975683;28;20508;-71
2022/04/25 02:56:03;;;;;;;39.30;28.80;;;8.70;99.90;;;;;;4975870;28;20409;-71
2022/04/25 02:58:30;;;;;;;37.17;27.13;;;8.70;99.90;;;;;;4975677;28;20409;-74
2022/04/25 03:00:57;;;;;;;41.50;27.80;;;8.70;99.90;;;;;;4975445;28;21035;-74
2022/04/25 03:03:23;;;;;;;37.80;27.47;;;8.70;99.90;;;;;;4976320;28;20426;-74
2022/04/25 03:05:50;;;;;;;39.23;27.90;;;8.60;99.90;;;;;;4977020;28;20842;-73
2022/04/25 03:08:20;;;;;;;38.27;27.53;;;8.60;99.90;;;;;;4976920;28;20426;-74
2022/04/25 03:10:47;;;;;;;40.77;27.33;;;8.60;99.90;;;;;;4976357;28;20460;-74
2022/04/25 03:13:14;;;;;;;32.67;25.67;;;8.60;99.90;;;;;;4975613;28;20436;-74
2022/04/25 03:15:40;;;;;;;38.43;26.90;;;8.60;99.90;;;;;;4976657;28;20417;-74
2022/04/25 03:18:07;;;;;;;39.83;27.97;;;8.50;99.90;;;;;;4976025;28;20444;-74
2022/04/25 03:20:33;;;;;;;40.83;29.03;;;8.50;99.90;;;;;;4975151;28;20866;-74
2022/04/25 03:22:59;;;;;;;38.43;27.83;;;8.40;99.90;;;;;;4975351;28;20432;-74
2022/04/25 03:25:25;;;;;;;39.10;26.80;;;8.30;99.90;;;;;;4975409;28;20410;-75
2022/04/25 03:27:51;;;;;;;40.27;28.03;;;8.20;99.90;;;;;;4975211;28;20410;-74
2022/04/25 03:30:17;;;;;;;36.93;25.90;;;8.20;99.90;;;;;;4975788;28;20643;-74
2022/04/25 03:32:47;;;;;;;34.47;26.27;;;8.10;99.90;;;;;;4974497;28;20236;-74
2022/04/25 03:35:13;;;;;;;38.60;26.87;;;8.00;99.90;;;;;;4975326;28;20420;-74
2022/04/25 03:37:40;;;;;;;37.50;26.50;;;7.90;99.90;;;;;;4975375;28;20417;-74
2022/04/25 03:40:06;;;;;;;36.63;26.70;;;7.90;99.90;;;;;;4975250;28;20417;-74
2022/04/25 03:42:33;;;;;;;37.17;27.93;;;7.80;99.90;;;;;;4974822;28;20442;-74
2022/04/25 03:44:59;;;;;;;38.10;28.23;;;7.80;99.90;;;;;;4975115;28;20410;-74
2022/04/25 03:47:25;;;;;;;39.80;28.90;;;7.80;99.90;;;;;;4974922;28;20417;-74
2022/04/25 03:49:51;;;;;;;43.03;29.13;;;7.80;99.90;;;;;;4974799;28;20792;-74
2022/04/25 03:52:16;;;;;;;43.03;30.53;;;7.80;99.90;;;;;;4974530;28;20473;-74
2022/04/25 03:57:25;;;;;;;45.40;29.30;;;7.80;99.90;;;;;;4974242;28;20229;-74
2022/04/25 03:59:51;;;;;;;46.97;31.60;;;7.80;99.90;;;;;;4974607;28;20417;-74
2022/04/25 04:02:16;;;;;;;45.63;31.63;;;7.80;99.90;;;;;;4974672;28;20214;-74
2022/04/25 04:04:42;;;;;;;48.87;31.43;;;7.80;99.90;;;;;;4974766;28;20219;-74
2022/04/25 04:07:08;;;;;;;40.77;29.60;;;7.80;99.90;;;;;;4974201;28;20612;-74
2022/04/25 04:09:46;;;;;;;47.20;31.57;;;7.80;99.90;;;;;;4974294;28;20226;-75
2022/04/25 04:12:12;;;;;;;46.80;31.37;;;7.80;99.90;;;;;;4974012;28;20468;-70
2022/04/25 04:14:39;;;;;;;48.93;29.40;;;7.80;99.90;;;;;;4974095;28;20916;-75
2022/04/25 04:17:07;;;;;;;41.03;30.40;;;7.90;99.90;;;;;;4974245;28;20445;-73
2022/04/25 04:19:33;;;;;;;43.07;30.03;;;7.90;99.90;;;;;;4974022;28;20469;-73
2022/04/25 04:22:02;;;;;;;41.17;27.70;;;8.00;99.90;;;;;;4973742;28;20502;-73
2022/04/25 04:24:28;;;;;;;46.40;31.57;;;8.00;99.90;;;;;;4974520;28;20546;-74
2022/04/25 04:26:55;;;;;;;46.87;29.93;;;8.00;99.90;;;;;;4976239;28;20447;-74
2022/04/25 04:29:21;;;;;;;46.13;29.80;;;8.00;99.90;;;;;;4974399;28;20500;-73
2022/04/25 04:31:46;;;;;;;45.00;30.23;;;8.00;99.90;;;;;;4973346;28;20578;-73
2022/04/25 04:34:13;;;;;;;45.77;29.63;;;8.00;99.90;;;;;;4973942;28;20259;-74
2022/04/25 04:36:38;;;;;;;44.73;32.17;;;8.00;99.90;;;;;;4973879;28;20176;-73
2022/04/25 04:39:04;;;;;;;46.57;31.33;;;8.10;99.90;;;;;;4973816;28;20429;-73
2022/04/25 04:41:30;;;;;;;47.90;31.50;;;8.10;99.90;;;;;;4973448;28;20203;-75
2022/04/25 04:43:57;;;;;;;43.77;27.43;;;8.10;99.90;;;;;;4973569;28;21172;-73
2022/04/25 04:46:23;;;;;;;42.47;30.10;;;8.20;99.90;;;;;;4973687;28;20176;-73
2022/04/25 04:48:49;;;;;;;47.40;30.80;;;8.20;99.90;;;;;;4973591;28;20958;-72
2022/04/25 04:51:14;;;;;;;41.67;30.27;;;8.30;99.90;;;;;;4973076;28;20561;-74
2022/04/25 04:53:40;;;;;;;43.70;31.37;;;8.30;99.90;;;;;;4973440;28;20184;-73
2022/04/25 04:56:06;;;;;;;44.40;30.40;;;8.30;99.90;;;;;;4973506;28;20264;-73
2022/04/25 04:58:31;;;;;;;45.53;29.13;;;8.40;99.90;;;;;;4973409;28;20208;-72
2022/04/25 05:00:57;;;;;;;39.63;26.97;;;8.40;99.90;;;;;;4973032;28;20198;-73
2022/04/25 05:03:25;;;;;;;47.97;30.10;;;8.40;99.90;;;;;;4973456;28;20211;-74
2022/04/25 05:05:54;;;;;;;47.00;31.10;;;8.50;99.90;;;;;;4973106;28;20179;-73
2022/04/25 05:08:20;;;;;;;46.50;29.80;;;8.60;99.90;;;;;;4972420;28;20437;-72
2022/04/25 05:10:45;;;;;;;41.00;29.27;;;8.60;99.90;;;;;;4971622;28;20462;-72
2022/04/25 05:13:11;;;;;;;45.70;30.90;;;8.60;99.90;;;;;;4973224;28;20218;-72
2022/04/25 05:15:37;;;;;;;48.80;31.10;;;8.70;99.90;;;;;;4972932;28;20171;-72
2022/04/25 05:18:03;;;;;;;43.40;30.27;;;8.70;99.90;;;;;;4972895;28;20645;-72
2022/04/25 05:20:29;;;;;;;44.87;30.37;;;8.80;99.90;;;;;;4968774;28;20449;-71
2022/04/25 05:22:55;;;;;;;45.93;29.53;;;8.80;99.90;;;;;;4965739;28;20211;-71
2022/04/25 05:25:25;;;;;;;41.80;27.83;;;8.90;99.90;;;;;;4967928;28;20934;-71
2022/04/25 05:27:53;;;;;;;42.27;31.30;;;8.90;99.90;;;;;;4971978;28;20502;-71
2022/04/25 05:30:20;;;;;;;43.77;29.97;;;9.00;99.90;;;;;;4971378;28;20422;-71
2022/04/25 05:32:53;;;;;;;42.37;29.13;;;9.00;99.90;;;;;;4971084;28;21056;-72
2022/04/25 05:35:22;;;;;;;40.07;28.03;;;9.10;99.90;;;;;;4972084;28;20405;-71
2022/04/25 05:37:47;;;;;;;43.50;29.67;;;9.20;99.90;;;;;;4971461;28;20831;-71
2022/04/25 05:40:15;;;;;;;37.70;28.20;;;9.30;99.90;;;;;;4972263;28;20412;-71
2022/04/25 05:42:41;;;;;;;41.10;28.70;;;9.50;99.90;;;;;;4972046;28;20549;-72
2022/04/25 05:45:09;;;;;;;36.87;27.33;;;9.70;99.90;;;;;;4972883;28;20410;-72
2022/04/25 05:47:35;;;;;;;36.43;27.63;;;9.90;99.90;;;;;;4972712;28;20409;-72
2022/04/25 05:52:46;;;;;;;38.13;26.67;;;10.30;99.90;;;;;;4972356;28;20509;-72
2022/04/25 05:55:12;;;;;;;34.60;25.90;;;10.60;99.90;;;;;;4972659;28;20935;-71
2022/04/25 05:57:38;;;;;;;30.57;24.77;;;10.90;99.90;;;;;;4972632;28;20494;-72
2022/04/25 06:00:05;;;;;;;32.27;24.87;;;11.40;99.90;;;;;;4972689;28;20183;-72
2022/04/25 06:02:31;;;;;;;29.63;22.70;;;12.00;99.90;;;;;;4972089;28;20200;-72
2022/04/25 06:04:56;;;;;;;26.63;21.07;;;12.30;99.90;;;;;;4972569;28;20499;-73
2022/04/25 06:07:22;;;;;;;26.40;20.17;;;13.20;99.90;;;;;;4972492;28;20641;-72
2022/04/25 06:09:47;;;;;;;24.10;19.40;;;14.00;99.90;;;;;;4972675;28;20182;-72
2022/04/25 06:12:13;;;;;;;21.47;18.83;;;14.10;99.90;;;;;;4972186;28;20557;-72
2022/04/25 06:14:40;;;;;;;23.03;20.10;;;14.30;99.90;;;;;;4972372;28;20180;-72
2022/04/25 06:17:06;;;;;;;20.80;18.43;;;14.70;99.90;;;;;;4972584;28;20183;-72
2022/04/25 06:19:32;;;;;;;23.17;19.60;;;15.30;99.90;;;;;;4973709;28;20423;-72
2022/04/25 06:21:58;;;;;;;21.07;17.63;;;15.70;99.90;;;;;;4976040;28;20204;-72
2022/04/25 06:24:23;;;;;;;22.37;17.07;;;16.00;99.90;;;;;;4976265;28;20430;-71
2022/04/25 06:26:49;;;;;;;22.83;18.97;;;15.70;99.90;;;;;;4976105;28;20245;-72
2022/04/25 06:29:17;;;;;;;22.90;17.63;;;15.30;99.90;;;;;;4976125;28;20188;-73
2022/04/25 06:31:43;;;;;;;27.43;18.60;;;15.20;99.90;;;;;;4975542;28;20214;-72
2022/04/25 06:34:08;;;;;;;21.97;18.80;;;14.90;99.90;;;;;;4976008;28;20837;-71
2022/04/25 06:36:36;;;;;;;19.83;17.33;;;14.80;99.90;;;;;;4976024;28;20188;-71
2022/04/25 06:39:02;;;;;;;20.80;18.00;;;14.50;99.90;;;;;;4972392;28;20198;-70
2022/04/25 06:41:28;;;;;;;19.37;16.00;;;14.60;99.90;;;;;;4975165;28;20932;-70
2022/04/25 06:43:54;;;;;;;20.43;17.53;;;14.50;99.90;;;;;;4975617;28;20430;-72
2022/04/25 06:46:19;;;;;;;23.20;19.10;;;14.20;99.90;;;;;;4975752;28;20188;-71
2022/04/25 06:49:19;;;;;;;20.17;17.10;;;14.20;99.90;;;;;;4975272;28;20176;-71
2022/04/25 06:51:30;;;;;;;22.77;17.70;;;14.40;99.90;;;;;;4975009;28;20215;-71
2022/04/25 06:53:56;;;;;;;20.37;17.13;;;14.60;99.90;;;;;;4975893;28;20427;-72
2022/04/25 06:56:22;;;;;;;19.47;17.40;;;14.50;99.90;;;;;;4973915;28;20180;-71
2022/04/25 06:58:47;;;;;;;20.10;16.60;;;14.20;99.90;;;;;;4973978;28;20214;-71
2022/04/25 07:01:13;;;;;;;20.97;17.23;;;13.70;99.90;;;;;;4975216;28;20612;-71
2022/04/25 07:03:38;;;;;;;23.27;18.57;;;13.10;99.90;;;;;;4975480;28;20187;-70
2022/04/25 07:06:04;;;;;;;21.97;18.90;;;13.00;99.90;;;;;;4976526;28;20595;-70
2022/04/25 07:08:29;;;;;;;23.70;17.97;;;13.10;99.90;;;;;;4975179;28;20176;-70
2022/04/25 07:10:55;;;;;;;26.20;19.43;;;12.90;99.90;;;;;;4974880;28;20295;-70
2022/04/25 07:13:20;;;;;;;22.27;17.83;;;12.90;99.90;;;;;;4975184;28;20544;-71
2022/04/25 07:15:46;;;;;;;20.63;17.60;;;12.90;99.90;;;;;;4975595;28;20176;-71
2022/04/25 07:18:13;;;;;;;24.30;18.93;;;12.90;99.90;;;;;;4975129;28;20222;-70
2022/04/25 07:20:38;;;;;;;22.63;17.43;;;12.90;99.90;;;;;;4974430;28;20231;-71
2022/04/25 07:28:48;;;;;;;23.10;20.20;;;13.10;99.90;;;;;;4975115;28;20621;-71
2022/04/25 07:28:53;;;;;;;23.80;18.80;;;13.80;99.90;;;;;;4974409;28;20958;-70
2022/04/25 07:31:20;;;;;;;21.60;16.60;;;15.00;99.90;;;;;;4973738;28;20796;-71
2022/04/25 07:33:46;;;;;;;17.97;15.20;;;15.90;99.90;;;;;;4974783;28;20439;-71
2022/04/25 07:36:15;;;;;;;19.37;15.57;;;16.40;99.90;;;;;;4975013;28;20505;-71
2022/04/25 07:38:41;;;;;;;18.40;16.50;;;16.00;99.90;;;;;;4974346;28;20226;-71
2022/04/25 07:41:07;;;;;;;17.03;15.23;;;15.30;99.90;;;;;;4974397;28;20443;-71
2022/04/25 07:43:34;;;;;;;17.13;15.33;;;15.00;99.90;;;;;;4974698;28;20415;-71
2022/04/25 07:46:00;;;;;;;23.33;16.00;;;15.10;99.90;;;;;;4974749;28;21120;-70
2022/04/25 07:48:25;;;;;;;17.20;14.90;;;15.40;99.90;;;;;;4974356;28;20482;-70
2022/04/25 07:50:51;;;;;;;16.53;14.40;;;16.00;99.90;;;;;;4974167;28;20242;-70
2022/04/25 07:53:16;;;;;;;18.00;14.23;;;16.40;99.90;;;;;;4974576;28;20596;-70
2022/04/25 07:55:42;;;;;;;13.33;12.03;;;17.00;99.90;;;;;;4974600;28;20180;-71
2022/04/25 07:58:08;;;;;;;16.40;12.10;;;17.30;99.90;;;;;;4974441;28;20267;-72
2022/04/25 08:00:35;;;;;;;14.07;12.40;;;17.20;99.90;;;;;;4973906;28;20263;-70
2022/04/25 08:03:01;;;;;;;14.83;12.80;;;17.60;99.90;;;;;;4974355;28;20180;-71
2022/04/25 08:05:27;;;;;;;15.03;11.67;;;17.80;99.90;;;;;;4974296;28;20796;-71
2022/04/25 08:07:52;;;;;;;14.17;12.87;;;17.80;99.90;;;;;;4974324;28;20596;-71
2022/04/25 08:10:18;;;;;;;13.93;11.67;;;17.50;99.90;;;;;;4973776;28;20188;-70
2022/04/25 08:18:13;;;;;;;15.40;13.87;;;16.40;99.90;;;;;;4973663;28;20474;-71
2022/04/25 08:20:40;;;;;;;13.30;12.00;;;16.00;99.90;;;;;;4973267;28;20419;-70
2022/04/25 08:23:09;;;;;;;13.63;12.17;;;15.60;99.90;;;;;;4973318;28;20426;-72
2022/04/25 08:25:36;;;;;;;15.13;13.27;;;15.50;99.90;;;;;;4972667;28;20422;-71
2022/04/25 08:28:01;;;;;;;16.00;14.30;;;15.50;99.90;;;;;;4974368;28;20411;-72
2022/04/25 08:30:28;;;;;;;16.10;14.30;;;15.20;99.90;;;;;;4973957;28;20415;-72
2022/04/25 08:32:55;;;;;;;16.87;14.23;;;15.10;99.90;;;;;;4973725;28;20588;-72
2022/04/25 08:35:21;;;;;;;15.90;14.20;;;15.00;99.90;;;;;;4974017;28;20439;-72
2022/04/25 08:37:48;;;;;;;17.73;13.97;;;14.90;99.90;;;;;;4973703;28;20512;-72
2022/04/25 08:40:13;;;;;;;16.77;14.53;;;14.60;99.90;;;;;;4973910;28;20175;-72
2022/04/25 08:42:39;;;;;;;16.60;14.90;;;14.60;99.90;;;;;;4973310;28;20439;-72
2022/04/25 08:45:06;;;;;;;14.87;13.30;;;14.70;99.90;;;;;;4973984;28;20201;-72
2022/04/25 08:47:36;;;;;;;15.70;14.20;;;14.50;99.90;;;;;;4973869;28;20619;-72
2022/04/25 08:50:02;;;;;;;16.10;14.40;;;14.30;99.90;;;;;;4973866;28;20498;-72
2022/04/25 08:52:29;;;;;;;22.87;15.67;;;14.30;99.90;;;;;;4973863;28;20494;-72
2022/04/25 08:54:57;;;;;;;18.47;15.70;;;14.50;99.90;;;;;;4974197;28;20781;-72
2022/04/25 08:57:27;;;;;;;18.37;15.23;;;14.50;99.90;;;;;;4973475;28;20427;-73
2022/04/25 08:59:55;;;;;;;20.67;14.67;;;14.60;99.90;;;;;;4973222;28;20996;-72
2022/04/25 09:02:22;;;;;;;16.93;14.50;;;14.80;99.90;;;;;;4973074;28;20798;-71
2022/04/25 09:04:49;;;;;;;15.73;14.13;;;14.90;99.90;;;;;;4973136;28;20908;-71
2022/04/25 09:07:18;;;;;;;15.80;14.20;;;15.00;99.90;;;;;;4973488;28;20415;-71
2022/04/25 09:09:44;;;;;;;16.97;14.00;;;14.90;99.90;;;;;;4973110;28;20422;-71
2022/04/25 09:12:12;;;;;;;17.40;15.10;;;14.60;99.90;;;;;;4972847;28;20478;-71
2022/04/25 09:14:40;;;;;;;19.77;15.23;;;14.60;99.90;;;;;;4973025;28;20168;-71
2022/04/25 09:17:06;;;;;;;16.03;13.90;;;14.70;99.90;;;;;;4973258;28;20435;-72
2022/04/25 09:19:33;;;;;;;19.60;15.90;;;14.70;99.90;;;;;;4977260;28;20490;-71
2022/04/25 09:21:59;;;;;;;15.77;13.77;;;14.70;99.90;;;;;;4975947;28;20459;-71
2022/04/25 09:24:30;;;;;;;17.00;15.20;;;14.70;99.90;;;;;;4974566;28;20463;-71
2022/04/25 09:27:07;;;;;;;16.80;15.00;;;14.70;99.90;;;;;;4973100;28;20455;-71
2022/04/25 09:29:34;;;;;;;17.27;14.97;;;14.50;99.90;;;;;;4973027;28;20438;-71
2022/04/25 09:32:00;;;;;;;22.93;15.20;;;14.50;99.90;;;;;;4972534;28;20489;-71
2022/04/25 09:37:13;;;;;;;16.37;14.67;;;14.50;99.90;;;;;;4973581;28;20828;-71
2022/04/25 09:39:39;;;;;;;17.87;16.10;;;14.40;99.90;;;;;;4972806;28;20715;-71
2022/04/25 09:42:05;;;;;;;17.73;15.70;;;14.10;99.90;;;;;;4972560;28;20435;-71
2022/04/25 09:44:57;;;;;;;20.43;16.43;;;14.40;99.90;;;;;;4972927;28;20176;-71
2022/04/25 09:47:36;;;;;;;16.90;15.00;;;15.30;99.90;;;;;;4971636;28;20231;-72
2022/04/25 09:50:07;;;;;;;18.57;16.03;;;16.50;99.90;;;;;;4973121;28;20414;-71
2022/04/25 09:52:51;;;;;;;17.23;13.97;;;17.40;99.90;;;;;;4971122;28;20467;-71
2022/04/25 09:55:17;;;;;;;15.00;13.50;;;17.90;99.90;;;;;;4972511;28;20452;-72
2022/04/25 09:57:46;;;;;;;16.80;15.07;;;17.90;99.90;;;;;;4972693;28;20411;-71
2022/04/25 10:00:13;;;;;;;18.00;16.10;;;17.90;99.90;;;;;;4973241;28;20176;-72
2022/04/25 10:02:40;;;;;;;17.27;14.93;;;17.60;99.90;;;;;;4972084;28;20795;-72
2022/04/25 10:05:14;;;;;;;20.70;15.27;;;17.00;99.90;;;;;;4972931;28;20908;-72
2022/04/25 10:07:41;;;;;;;17.63;14.43;;;16.70;99.90;;;;;;4972735;28;20506;-72
2022/04/25 10:10:09;;;;;;;14.40;13.07;;;16.60;99.90;;;;;;4972610;28;20411;-70
2022/04/25 10:12:36;;;;;;;17.40;14.03;;;16.70;99.90;;;;;;4972043;28;20562;-72
2022/04/25 10:15:03;;;;;;;16.70;15.07;;;16.60;99.90;;;;;;4969851;28;20419;-73
2022/04/25 10:17:29;;;;;;;16.10;14.50;;;16.70;99.90;;;;;;4971309;28;20408;-72
2022/04/25 10:19:55;;;;;;;17.20;15.40;;;16.80;99.90;;;;;;4972468;28;20996;-73
2022/04/25 10:22:22;;;;;;;18.93;15.23;;;16.80;99.90;;;;;;4972362;28;20490;-72
2022/04/25 10:24:47;;;;;;;17.33;15.33;;;16.70;99.90;;;;;;4971851;28;20426;-72
2022/04/25 10:27:15;;;;;;;16.40;14.70;;;16.80;99.90;;;;;;4972589;28;20415;-73
2022/04/25 10:29:51;;;;;;;15.10;13.60;;;16.80;99.90;;;;;;4971320;28;20259;-72
2022/04/25 10:32:22;;;;;;;16.83;14.30;;;16.90;99.90;;;;;;4972038;28;20525;-72
2022/04/25 10:35:01;;;;;;;16.47;14.67;;;17.10;99.90;;;;;;4972895;28;20458;-72
2022/04/25 10:37:41;;;;;;;18.43;14.40;;;16.90;99.90;;;;;;4972666;28;20411;-72
2022/04/25 10:40:12;;;;;;;15.00;12.90;;;16.70;99.90;;;;;;4972520;28;20960;-72
2022/04/25 10:45:59;;;;;;;17.43;15.00;;;16.40;99.90;;;;;;4973092;28;20450;-72
2022/04/25 10:48:26;;;;;;;16.03;14.33;;;16.30;99.90;;;;;;4973038;28;20507;-72
2022/04/25 10:51:12;;;;;;;17.33;15.63;;;16.10;99.90;;;;;;4972610;28;20469;-71
2022/04/25 10:54:05;;;;;;;16.73;14.57;;;16.10;99.90;;;;;;4972527;28;20411;-72
2022/04/25 10:56:32;;;;;;;15.87;14.27;;;16.30;99.90;;;;;;4974648;28;20936;-74
2022/04/25 10:59:21;;;;;;;16.90;15.23;;;16.30;99.90;;;;;;4974932;28;20415;-73
2022/04/25 11:01:48;;;;;;;16.50;14.80;;;16.30;99.90;;;;;;4973676;28;20447;-74
2022/04/25 11:04:14;;;;;;;16.83;14.40;;;16.40;99.90;;;;;;4976754;28;20427;-73
2022/04/25 11:06:41;;;;;;;17.20;15.43;;;16.50;99.90;;;;;;4958754;28;20504;-72
2022/04/25 11:09:07;;;;;;;15.60;13.63;;;16.40;99.90;;;;;;4977344;28;20443;-73
2022/04/25 11:11:53;;;;;;;14.90;13.40;;;16.40;99.90;;;;;;4975976;28;20843;-73
2022/04/25 11:14:19;;;;;;;14.73;12.97;;;16.50;99.90;;;;;;4976813;28;20621;-73
2022/04/25 11:17:11;;;;;;;14.27;12.77;;;16.60;99.90;;;;;;4974973;28;20415;-73
2022/04/25 11:19:53;;;;;;;14.90;13.17;;;16.70;99.90;;;;;;4977508;28;20404;-72
2022/04/25 11:22:48;;;;;;;15.80;13.80;;;16.80;99.90;;;;;;4976557;28;20436;-73
2022/04/25 11:25:26;;;;;;;17.00;14.27;;;16.70;99.90;;;;;;4975600;28;20478;-73
2022/04/25 11:28:05;;;;;;;17.93;14.93;;;16.70;99.90;;;;;;4977037;28;20435;-73
2022/04/25 11:30:31;;;;;;;19.13;13.33;;;16.60;99.90;;;;;;4975431;28;20423;-72
2022/04/25 11:33:12;;;;;;;14.40;13.10;;;16.60;99.90;;;;;;4976496;28;20447;-73
2022/04/25 11:35:39;;;;;;;15.33;13.73;;;16.40;99.90;;;;;;4959471;28;20434;-73
2022/04/25 11:38:06;;;;;;;14.90;13.40;;;16.20;99.90;;;;;;4975229;28;20507;-73
2022/04/25 11:40:32;;;;;;;16.33;14.60;;;16.10;99.90;;;;;;4976075;28;20411;-72
2022/04/25 11:42:59;;;;;;;17.50;15.70;;;15.90;99.90;;;;;;4975545;28;20440;-73
2022/04/25 11:45:28;;;;;;;15.97;13.67;;;15.80;99.90;;;;;;4976011;28;20829;-73
2022/04/25 11:47:53;;;;;;;15.13;13.37;;;15.50;99.90;;;;;;4975937;28;20490;-73
2022/04/25 11:50:20;;;;;;;17.60;15.70;;;15.30;99.90;;;;;;4975749;28;20828;-73
2022/04/25 11:52:52;;;;;;;18.43;16.43;;;15.20;99.90;;;;;;4975181;28;20200;-73
2022/04/25 11:55:19;;;;;;;20.97;17.53;;;14.90;99.90;;;;;;4975638;28;20836;-73
2022/04/25 11:57:45;;;;;;;20.53;17.80;;;14.60;99.90;;;;;;4975215;28;20458;-73
2022/04/25 12:00:21;;;;;;;21.63;19.20;;;14.30;99.90;;;;;;4976038;28;20412;-73
2022/04/25 12:02:47;;;;;;;25.27;20.30;;;14.00;99.90;;;;;;4958269;28;21025;-73
2022/04/25 12:05:23;;;;;;;23.90;19.27;;;13.80;99.90;;;;;;4973525;28;20959;-73
2022/04/25 12:16:05;;;;;;;21.33;18.40;;;13.60;99.90;;;;;;4975749;28;20671;-72
2022/04/25 12:18:32;;;;;;;23.23;18.70;;;13.70;99.90;;;;;;4973284;28;20475;-73
2022/04/25 12:21:05;;;;;;;24.40;19.20;;;13.90;99.90;;;;;;4957749;28;20529;-71
2022/04/25 12:23:39;;;;;;;21.37;19.00;;;13.80;99.90;;;;;;4958081;28;20508;-72
2022/04/25 12:26:06;;;;;;;21.00;18.57;;;13.70;99.90;;;;;;4975855;28;20427;-72
2022/04/25 12:28:34;;;;;;;18.57;16.57;;;13.50;99.90;;;;;;4976313;28;20423;-72
2022/04/25 12:31:05;;;;;;;18.50;15.87;;;13.60;99.90;;;;;;4973821;28;20477;-72
2022/04/25 12:33:40;;;;;;;19.80;16.63;;;13.70;99.90;;;;;;4974334;28;20431;-71
2022/04/25 12:36:19;;;;;;;18.60;16.30;;;13.60;99.90;;;;;;4975150;28;20421;-72
2022/04/25 12:38:59;;;;;;;19.53;15.80;;;13.60;99.90;;;;;;4974610;28;20462;-72
2022/04/25 12:41:33;;;;;;;17.60;14.53;;;13.80;99.90;;;;;;4974995;28;20442;-71
2022/04/25 12:44:11;;;;;;;20.50;16.17;;;14.00;99.90;;;;;;4974719;28;20411;-72
2022/04/25 12:46:52;;;;;;;20.60;15.23;;;14.10;99.90;;;;;;4975543;28;20415;-72
2022/04/25 12:49:31;;;;;;;17.10;14.40;;;14.20;99.90;;;;;;4973783;28;20416;-72
2022/04/25 12:51:59;;;;;;;15.87;14.17;;;14.10;99.90;;;;;;4951512;28;20493;-72
2022/04/25 12:54:30;;;;;;;18.80;15.10;;;14.20;99.90;;;;;;4964049;28;20933;-72
2022/04/25 12:57:13;;;;;;;19.73;15.60;;;14.20;99.90;;;;;;4964769;28;20510;-73
2022/04/25 12:59:40;;;;;;;17.23;15.40;;;14.20;99.90;;;;;;4968976;28;20838;-72
2022/04/25 13:02:12;;;;;;;16.43;14.63;;;14.30;99.90;;;;;;4967311;28;20455;-73
2022/04/25 13:04:57;;;;;;;16.40;14.37;;;14.60;99.90;;;;;;4972326;28;20424;-73
2022/04/25 13:07:28;;;;;;;16.80;14.13;;;14.80;99.90;;;;;;4974425;28;20423;-73
2022/04/25 13:09:56;;;;;;;15.27;13.40;;;15.10;99.90;;;;;;4973495;28;20427;-73
2022/04/25 13:12:23;;;;;;;15.00;13.43;;;15.20;99.90;;;;;;4973166;28;21041;-73
2022/04/25 13:14:49;;;;;;;16.17;13.60;;;15.50;99.90;;;;;;4973509;28;20940;-72
2022/04/25 13:17:15;;;;;;;14.97;12.90;;;15.50;99.90;;;;;;4973701;28;20411;-72
2022/04/25 13:19:43;;;;;;;13.63;12.33;;;15.50;99.90;;;;;;4973378;28;20207;-72
2022/04/25 13:22:09;;;;;;;15.93;13.33;;;15.70;99.90;;;;;;4973054;28;20538;-70
2022/04/25 13:24:35;;;;;;;12.97;11.67;;;15.90;99.90;;;;;;4973240;28;20519;-71
2022/04/25 13:27:02;;;;;;;17.10;13.13;;;15.60;99.90;;;;;;4973384;28;20180;-71
2022/04/25 13:29:27;;;;;;;14.80;13.23;;;15.50;99.90;;;;;;4971519;28;20430;-70
2022/04/25 13:31:53;;;;;;;15.17;13.63;;;15.30;99.90;;;;;;4972435;28;20788;-71
2022/04/25 13:34:18;;;;;;;13.40;12.10;;;15.20;99.90;;;;;;4973117;28;20191;-70
2022/04/25 13:36:44;;;;;;;16.70;14.90;;;15.00;99.90;;;;;;4973023;28;20383;-71
2022/04/25 13:39:09;;;;;;;14.10;12.63;;;14.80;99.90;;;;;;4973062;28;20250;-71
2022/04/25 13:41:35;;;;;;;12.43;11.20;;;14.80;99.90;;;;;;4972611;28;20196;-70
2022/04/25 13:44:04;;;;;;;13.33;11.97;;;14.60;99.90;;;;;;4972951;28;20211;-71
2022/04/25 13:46:30;;;;;;;14.00;12.67;;;14.60;99.90;;;;;;4974968;28;20196;-72
2022/04/25 13:48:57;;;;;;;13.33;12.03;;;14.70;99.90;;;;;;4973866;28;20497;-71
2022/04/25 13:51:22;;;;;;;13.87;12.40;;;14.80;99.90;;;;;;4973657;28;20577;-71
2022/04/25 13:53:48;;;;;;;14.10;12.37;;;15.00;99.90;;;;;;4972653;28;20423;-71
2022/04/25 13:56:14;;;;;;;15.97;14.27;;;15.10;99.90;;;;;;4972841;28;20176;-71
2022/04/25 13:58:40;;;;;;;16.60;14.77;;;15.10;99.90;;;;;;4973231;28;20176;-71
2022/04/25 14:01:09;;;;;;;17.67;15.80;;;15.10;99.90;;;;;;4972357;28;20994;-70
2022/04/25 14:03:35;;;;;;;17.07;14.47;;;15.40;99.90;;;;;;4972417;28;20719;-71
2022/04/25 14:06:01;;;;;;;15.30;13.77;;;15.50;99.90;;;;;;4972562;28;20427;-71
2022/04/25 14:08:27;;;;;;;15.33;13.73;;;15.40;99.90;;;;;;4972505;28;20191;-71
2022/04/25 14:10:53;;;;;;;15.47;13.60;;;15.10;99.90;;;;;;4972124;28;21006;-71
2022/04/25 14:13:20;;;;;;;20.30;16.10;;;15.00;99.90;;;;;;4972625;28;20271;-71
2022/04/25 14:15:46;;;;;;;18.40;16.50;;;15.00;99.90;;;;;;4972214;28;20462;-71
2022/04/25 14:18:12;;;;;;;19.10;16.67;;;14.80;99.90;;;;;;4972402;28;20420;-70
2022/04/25 14:20:39;;;;;;;20.80;18.50;;;14.70;99.90;;;;;;4971875;28;20775;-69
2022/04/25 14:23:06;;;;;;;20.37;17.70;;;14.60;99.90;;;;;;4971115;28;20942;-70
2022/04/25 14:25:32;;;;;;;21.87;17.57;;;14.30;99.90;;;;;;4972614;28;20503;-70
2022/04/25 14:27:58;;;;;;;22.37;17.50;;;14.10;99.90;;;;;;4972078;28;20474;-70
2022/04/25 14:30:25;;;;;;;21.53;17.80;;;14.00;99.90;;;;;;4972577;28;20823;-68
2022/04/25 14:32:52;;;;;;;19.53;16.83;;;14.10;99.90;;;;;;4973190;28;20718;-73